Time;durP1;ratioP1;P1;durP2;ratioP2;P2;SDS_P1;SDS_P2;PMS_P1;PMS_P2;Temp;Humidity;BMP_temperature;BMP_pressure;BME280_temperature;BME280_humidity;BME280_pressure;Samples;Min_cycle;Max_cycle;Signal;HPM_P1;HPM_P2
2023/05/13 00:04:42;;;;;;;7.55;5.90;;;;;;;25.94;36.98;101562.69;20910040;28;20098;-69
2023/05/13 00:14:48;;;;;;;9.07;6.40;;;;;;;25.84;36.94;101558.88;20910012;28;20041;-69
2023/05/13 00:24:50;;;;;;;7.80;7.00;;;;;;;25.97;37.09;101584.50;20909957;28;20083;-69
2023/05/13 00:34:51;;;;;;;10.60;6.50;;;;;;;25.92;36.77;101577.00;20909224;28;20041;-69
2023/05/13 00:44:52;;;;;;;6.95;6.22;;;;;;;25.71;37.05;101553.97;20924127;28;20472;-69
2023/05/13 00:54:54;;;;;;;8.00;6.60;;;;;;;25.95;37.12;101610.06;20924676;28;20033;-69
2023/05/13 01:05:20;;;;;;;11.55;7.55;;;;;;;25.98;37.57;101608.59;20953581;28;20044;-69
2023/05/13 01:15:26;;;;;;;9.35;7.38;;;;;;;25.96;37.58;101605.28;20998195;28;20122;-69
2023/05/13 01:25:27;;;;;;;9.75;7.35;;;;;;;26.02;38.01;101616.13;20956897;28;20045;-70
2023/05/13 01:35:30;;;;;;;10.35;7.55;;;;;;;26.05;38.24;101614.69;20938897;28;20036;-69
2023/05/13 01:45:35;;;;;;;10.32;8.48;;;;;;;25.62;38.40;101578.19;21002793;28;20483;-70
2023/05/13 01:55:36;;;;;;;12.43;8.60;;;;;;;26.08;38.59;101614.94;21001259;28;20487;-71
2023/05/13 02:05:37;;;;;;;11.25;8.75;;;;;;;26.06;38.62;101624.78;21001273;28;20044;-72
2023/05/13 02:15:39;;;;;;;9.57;8.57;;;;;;;25.94;38.64;101597.16;21005251;28;20052;-71
2023/05/13 02:25:43;;;;;;;11.30;9.27;;;;;;;26.12;38.96;101625.56;20963128;28;20049;-72
2023/05/13 02:35:48;;;;;;;10.40;9.27;;;;;;;25.94;39.11;101587.94;20949094;28;20047;-72
2023/05/13 02:45:49;;;;;;;12.27;10.18;;;;;;;26.16;39.05;101607.84;21004325;28;20028;-72
2023/05/13 02:55:51;;;;;;;12.13;9.00;;;;;;;25.89;39.19;101559.94;21007717;28;20465;-71
2023/05/13 03:05:55;;;;;;;11.02;9.63;;;;;;;26.18;39.13;101591.53;21042854;28;20040;-74
2023/05/13 03:15:56;;;;;;;12.25;9.45;;;;;;;26.19;39.18;101587.56;21013179;28;20040;-71
2023/05/13 03:25:57;;;;;;;13.10;10.23;;;;;;;26.11;39.09;101557.38;20997268;28;20045;-72
2023/05/13 03:35:59;;;;;;;12.98;10.18;;;;;;;26.21;39.18;101582.50;21030249;28;20040;-72
2023/05/13 03:46:00;;;;;;;13.57;10.15;;;;;;;26.18;39.38;101574.69;21004257;28;20044;-71
2023/05/13 03:56:04;;;;;;;10.85;9.35;;;;;;;26.22;39.37;101581.38;20990455;28;20106;-73
2023/05/13 04:06:06;;;;;;;11.77;9.63;;;;;;;26.23;39.57;101562.56;20977539;28;20483;-72
2023/05/13 04:16:07;;;;;;;11.45;10.25;;;;;;;26.23;39.39;101554.97;21049786;28;20052;-71
2023/05/13 04:26:10;;;;;;;11.30;9.57;;;;;;;26.24;39.68;101544.59;20937678;28;20037;-71
2023/05/13 04:36:11;;;;;;;11.85;9.85;;;;;;;26.24;39.68;101551.03;21036467;28;20036;-71
2023/05/13 04:46:12;;;;;;;11.02;9.52;;;;;;;26.22;39.71;101553.31;20918611;28;20539;-71
2023/05/13 04:56:23;;;;;;;10.68;9.15;;;;;;;26.26;39.68;101560.00;21005198;28;20692;-70
2023/05/13 05:06:24;;;;;;;12.55;9.80;;;;;;;26.15;39.88;101535.19;21073113;28;20047;-71
2023/05/13 05:16:26;;;;;;;10.98;9.40;;;;;;;26.27;39.93;101556.03;21063404;28;20075;-71
2023/05/13 05:26:29;;;;;;;11.02;9.07;;;;;;;26.29;39.94;101536.94;21040057;28;20486;-71
2023/05/13 05:36:34;;;;;;;13.15;10.27;;;;;;;26.16;40.15;101509.66;20971039;28;20044;-71
2023/05/13 05:46:35;;;;;;;12.55;9.63;;;;;;;26.20;40.28;101515.47;20987356;28;20091;-70
2023/05/13 05:56:43;;;;;;;10.95;9.20;;;;;;;26.19;40.16;101509.03;20985761;28;20040;-70
2023/05/13 06:06:44;;;;;;;;;;;;;;;26.29;40.37;101503.25;20967388;28;20045;-71
2023/05/13 06:16:45;;;;;;;11.75;10.07;;;;;;;26.34;40.55;101511.63;20919461;28;19920;-70
2023/05/13 06:26:46;;;;;;;11.43;10.18;;;;;;;26.29;40.57;101502.44;20917854;28;20033;-70
2023/05/13 06:36:48;;;;;;;11.25;9.60;;;;;;;26.32;40.90;101513.88;20915287;28;20041;-70
2023/05/13 06:46:49;;;;;;;14.43;9.73;;;;;;;26.31;41.04;101506.59;20995622;28;20536;-70
2023/05/13 06:56:51;;;;;;;13.30;9.93;;;;;;;26.32;40.98;101485.81;20964859;28;20021;-70
2023/05/13 07:06:53;;;;;;;13.05;10.43;;;;;;;26.33;40.80;101493.09;20913988;28;20140;-70
2023/05/13 07:16:54;;;;;;;11.20;9.68;;;;;;;26.33;40.69;101492.25;20914020;28;20080;-70
2023/05/13 07:26:56;;;;;;;11.45;9.48;;;;;;;26.34;41.03;101491.13;20914123;28;20037;-71
2023/05/13 07:36:57;;;;;;;11.02;9.93;;;;;;;26.35;41.25;101492.81;20972580;28;20090;-71
2023/05/13 07:47:00;;;;;;;13.48;10.73;;;;;;;26.35;40.87;101479.63;20990559;28;20047;-71
2023/05/13 07:57:04;;;;;;;12.05;10.07;;;;;;;26.24;40.90;101480.91;20962046;28;20045;-71
2023/05/13 08:07:05;;;;;;;11.30;9.77;;;;;;;26.29;41.05;101492.03;20964935;28;20086;-71
2023/05/13 08:17:07;;;;;;;12.10;9.95;;;;;;;26.34;41.13;101488.31;20951949;28;20454;-71
2023/05/13 08:27:08;;;;;;;12.70;9.75;;;;;;;26.39;41.39;101490.22;20993852;28;20484;-71
2023/05/13 08:37:10;;;;;;;11.98;10.10;;;;;;;26.38;41.70;101488.53;20938177;28;20036;-71
2023/05/13 08:47:29;;;;;;;14.00;10.10;;;;;;;26.39;41.80;101501.44;20956391;28;20044;-71
2023/05/13 08:57:31;;;;;;;11.68;10.05;;;;;;;26.39;41.53;101496.69;20967544;28;20040;-71
2023/05/13 09:07:37;;;;;;;11.30;9.43;;;;;;;26.35;41.60;101501.22;20983853;28;20399;-71
2023/05/13 09:17:41;;;;;;;11.95;10.48;;;;;;;26.40;41.99;101508.72;20972282;28;20075;-71
2023/05/13 09:27:50;;;;;;;11.07;9.88;;;;;;;26.39;41.92;101496.69;20995521;28;20040;-71
2023/05/13 09:37:54;;;;;;;12.27;9.80;;;;;;;26.41;41.90;101494.38;20956080;28;20059;-71
2023/05/13 09:47:56;;;;;;;10.45;9.00;;;;;;;26.41;41.82;101504.78;20960612;28;20472;-71
2023/05/13 09:57:57;;;;;;;13.00;10.45;;;;;;;26.40;42.33;101500.31;20957482;28;20051;-71
2023/05/13 10:08:03;;;;;;;14.93;11.27;;;;;;;26.41;42.28;101527.22;20991202;28;20083;-71
2023/05/13 10:18:05;;;;;;;12.10;9.73;;;;;;;26.41;42.27;101532.84;20989182;28;20063;-71
2023/05/13 10:28:08;;;;;;;12.23;10.88;;;;;;;26.38;42.17;101525.84;20977736;28;20087;-71
2023/05/13 10:38:16;;;;;;;13.25;10.82;;;;;;;26.18;42.32;101518.59;21014021;28;20045;-71
2023/05/13 10:48:17;;;;;;;12.30;10.35;;;;;;;26.31;42.47;101537.47;20999458;28;20075;-71
2023/05/13 10:58:21;;;;;;;11.88;10.27;;;;;;;26.42;42.10;101557.78;20992056;28;20070;-71
2023/05/13 11:08:43;;;;;;;13.63;10.85;;;;;;;26.38;42.50;101564.31;20995830;28;20049;-71
2023/05/13 11:18:44;;;;;;;11.32;10.23;;;;;;;26.29;42.62;101534.13;20971476;28;20391;-71
2023/05/13 11:29:02;;;;;;;11.85;9.98;;;;;;;26.36;42.68;101548.63;20952008;28;20040;-72
2023/05/13 11:39:15;;;;;;;12.95;10.98;;;;;;;26.44;42.84;101560.34;20945965;28;20056;-72
2023/05/13 11:49:39;;;;;;;13.98;10.27;;;;;;;26.42;43.22;101546.56;20987729;28;20043;-73
2023/05/13 11:59:40;;;;;;;14.02;10.35;;;;;;;25.48;42.91;101383.88;20993875;28;20095;-72
2023/05/13 12:09:43;;;;;;;13.27;10.60;;;;;;;26.27;42.95;101511.16;20993489;28;20494;-74
2023/05/13 12:20:10;;;;;;;16.17;10.40;;;;;;;26.44;43.18;101566.78;20993022;28;20024;-73
2023/05/13 12:30:14;;;;;;;13.90;10.95;;;;;;;26.47;45.00;101576.56;20992254;28;20048;-74
2023/05/13 12:40:18;;;;;;;14.65;10.57;;;;;;;26.50;43.96;101609.63;21005911;28;20074;-73
2023/05/13 12:50:22;;;;;;;12.32;10.25;;;;;;;26.49;43.29;101613.59;21007911;28;20353;-73
2023/05/13 13:00:24;;;;;;;15.90;11.63;;;;;;;26.52;45.28;101621.38;21007926;28;20060;-72
2023/05/13 13:10:25;;;;;;;15.70;11.18;;;;;;;26.50;43.63;101657.34;21006558;28;20041;-73
2023/05/13 13:20:30;;;;;;;12.88;11.23;;;;;;;26.49;43.42;101658.50;21005025;28;20040;-73
2023/05/13 13:30:31;;;;;;;13.32;11.20;;;;;;;26.44;43.20;101650.16;21004382;28;20028;-72
2023/05/13 13:40:34;;;;;;;14.82;10.65;;;;;;;26.47;43.59;101660.75;21003930;28;20056;-74
2023/05/13 13:50:38;;;;;;;13.73;11.82;;;;;;;26.50;43.50;101669.41;21003974;28;20388;-72
2023/05/13 14:00:39;;;;;;;14.40;10.80;;;;;;;26.52;43.30;101674.69;21002298;28;20048;-72
2023/05/13 14:10:44;;;;;;;12.82;10.52;;;;;;;26.27;43.43;101634.59;21002035;28;20127;-72
2023/05/13 14:20:46;;;;;;;14.18;11.00;;;;;;;26.45;43.52;101665.84;21001456;28;20040;-73
2023/05/13 14:30:47;;;;;;;13.15;11.75;;;;;;;26.53;43.44;101688.47;21000295;28;20483;-72
2023/05/13 14:40:49;;;;;;;35.42;12.80;;;;;;;26.53;43.55;101696.03;21036861;28;20407;-72
2023/05/13 14:50:50;;;;;;;19.52;12.43;;;;;;;26.13;43.94;101616.00;20952566;28;20174;-75
2023/05/13 15:00:52;;;;;;;23.50;12.57;;;;;;;26.45;43.77;101671.44;20914988;28;20542;-74
2023/05/13 15:10:53;;;;;;;18.15;13.52;;;;;;;26.57;44.02;101688.66;20914380;28;20041;-74
2023/05/13 15:20:54;;;;;;;15.25;12.52;;;;;;;26.59;44.87;101680.78;20913427;28;20040;-74
2023/05/13 15:30:56;;;;;;;17.50;13.40;;;;;;;26.59;45.83;101676.00;20912866;28;20381;-74
2023/05/13 15:40:57;;;;;;;21.70;12.50;;;;;;;26.60;45.98;101671.22;20912312;28;20033;-74
2023/05/13 15:50:58;;;;;;;18.25;12.90;;;;;;;26.62;45.36;101668.97;20911384;28;20037;-74
2023/05/13 16:01:03;;;;;;;17.13;12.98;;;;;;;26.63;46.10;101655.78;20910349;28;20181;-74
2023/05/13 16:11:04;;;;;;;15.73;12.65;;;;;;;26.53;45.47;101626.72;20909052;28;20576;-73
2023/05/13 16:21:05;;;;;;;16.80;11.80;;;;;;;26.56;45.52;101628.06;20909624;28;20053;-73
2023/05/13 16:31:07;;;;;;;16.85;12.80;;;;;;;26.59;45.14;101625.47;20908294;28;20033;-73
2023/05/13 16:41:09;;;;;;;15.05;12.10;;;;;;;26.68;44.75;101622.00;20908470;28;20049;-73
2023/05/13 16:51:10;;;;;;;16.73;11.80;;;;;;;26.65;44.14;101612.19;20908591;28;20045;-73
2023/05/13 17:01:12;;;;;;;15.13;11.02;;;;;;;26.63;43.92;101602.44;20908052;28;20049;-73
2023/05/13 17:11:16;;;;;;;14.75;11.48;;;;;;;26.56;44.10;101597.19;20907586;28;20045;-74
2023/05/13 17:21:20;;;;;;;14.93;11.10;;;;;;;26.48;44.36;101597.84;20912448;28;20033;-74
2023/05/13 17:31:24;;;;;;;14.15;11.65;;;;;;;26.15;45.37;101536.00;20921591;28;20045;-73
2023/05/13 17:41:26;;;;;;;13.35;11.05;;;;;;;26.43;45.40;101586.69;20921308;28;20044;-74
2023/05/13 17:51:27;;;;;;;15.60;10.75;;;;;;;26.51;45.22;101572.00;20920626;28;20071;-74
2023/05/13 18:01:28;;;;;;;14.60;11.18;;;;;;;26.46;45.74;101586.13;20919658;28;20401;-73
2023/05/13 18:11:30;;;;;;;15.35;12.35;;;;;;;26.23;45.16;101549.38;20918647;28;20041;-74
2023/05/13 18:21:31;;;;;;;18.70;11.70;;;;;;;26.51;45.20;101563.59;20973694;28;20048;-73
2023/05/13 18:31:33;;;;;;;15.30;11.40;;;;;;;26.28;45.13;101538.06;20985439;28;20037;-73
2023/05/13 18:41:35;;;;;;;21.70;11.43;;;;;;;26.39;45.21;101575.25;20946583;28;20103;-73
2023/05/13 18:51:36;;;;;;;17.60;11.68;;;;;;;26.13;45.73;101549.53;20936952;28;20044;-73
2023/05/13 19:01:41;;;;;;;14.75;10.50;;;;;;;26.29;45.81;101581.81;21008069;28;20037;-72
2023/05/13 19:11:43;;;;;;;15.63;10.23;;;;;;;26.11;45.66;101540.56;20951319;28;20098;-73
2023/05/13 19:21:44;;;;;;;17.15;11.88;;;;;;;26.35;45.64;101566.59;20955315;28;20053;-73
2023/05/13 19:31:46;;;;;;;22.42;11.32;;;;;;;26.24;46.49;101562.25;20941593;28;20044;-72
2023/05/13 19:41:47;;;;;;;16.60;10.57;;;;;;;26.38;46.32;101527.84;20929633;28;20045;-72
2023/05/13 19:51:56;;;;;;;13.18;10.13;;;;;;;26.22;46.18;101502.81;20943230;28;20558;-73
2023/05/13 20:01:57;;;;;;;14.05;10.23;;;;;;;26.46;46.48;101527.19;20953435;28;20048;-73
2023/05/13 20:11:59;;;;;;;12.90;10.02;;;;;;;26.47;46.31;101526.03;20987711;28;20045;-72
2023/05/13 20:22:00;;;;;;;14.70;10.90;;;;;;;26.51;46.27;101527.94;20992382;28;20037;-73
2023/05/13 20:32:02;;;;;;;16.30;10.98;;;;;;;26.51;46.24;101521.47;20992266;28;20086;-72
2023/05/13 20:42:04;;;;;;;12.35;10.60;;;;;;;26.47;46.34;101526.03;20991017;28;20041;-72
2023/05/13 20:52:05;;;;;;;13.32;10.13;;;;;;;26.46;46.35;101530.00;20990691;28;20028;-73
2023/05/13 21:02:09;;;;;;;12.82;10.63;;;;;;;25.92;46.34;101447.19;21006956;28;20048;-73
2023/05/13 21:12:11;;;;;;;15.70;10.77;;;;;;;26.49;46.49;101540.63;21005989;28;20048;-74
2023/05/13 21:22:12;;;;;;;14.98;10.85;;;;;;;26.42;46.92;101542.94;21005845;28;20078;-73
2023/05/13 21:32:15;;;;;;;12.75;10.73;;;;;;;26.47;46.76;101543.69;21005141;28;20039;-73
2023/05/13 21:42:16;;;;;;;12.48;10.85;;;;;;;26.48;46.60;101538.91;21004160;28;20540;-72
2023/05/13 21:52:18;;;;;;;12.32;10.90;;;;;;;26.48;46.84;101534.16;21002963;28;20036;-72
2023/05/13 22:02:22;;;;;;;13.55;11.40;;;;;;;26.46;46.88;101532.78;21021051;28;20483;-74
2023/05/13 22:12:23;;;;;;;16.50;12.93;;;;;;;26.47;47.06;101532.47;21052979;28;20041;-73
2023/05/13 22:22:25;;;;;;;15.20;11.80;;;;;;;26.40;46.96;101519.97;20990441;28;20103;-73
2023/05/13 22:32:29;;;;;;;16.63;13.50;;;;;;;26.44;46.76;101526.66;20948742;28;20117;-72
2023/05/13 22:42:30;;;;;;;16.20;12.52;;;;;;;26.50;47.02;101533.84;20997183;28;20105;-74
2023/05/13 22:52:37;;;;;;;17.13;13.95;;;;;;;26.40;47.14;101523.59;20966148;28;20068;-72
2023/05/13 23:02:41;;;;;;;15.03;10.93;;;;;;;26.36;46.67;101509.34;20955615;28;20143;-73
2023/05/13 23:12:42;;;;;;;14.98;11.70;;;;;;;26.35;47.02;101521.69;20961450;28;20048;-72
2023/05/13 23:22:45;;;;;;;15.77;11.60;;;;;;;26.43;47.00;101553.88;20965524;28;20056;-72
2023/05/13 23:32:46;;;;;;;15.68;11.68;;;;;;;26.26;47.24;101525.50;20952531;28;20036;-73
2023/05/13 23:42:48;;;;;;;17.08;11.30;;;;;;;26.36;47.39;101548.63;20953966;28;20033;-74
2023/05/13 23:52:50;;;;;;;15.98;12.00;;;;;;;26.29;47.36;101547.31;20959593;28;20110;-72
